ADDS METAR Data INFO
IDs: Format: Raw Decoded Include TAF

Data at: 1410 UTC 12 Dec 2017

KFXY 121355Z AUTO 31008KT 10SM CLR M12/M14 A3022 RMK AO2
KFXY 121335Z AUTO 30007KT 10SM CLR M12/M14 A3021 RMK AO2
KFXY 121315Z AUTO 31006KT 10SM CLR M11/M14 A3021 RMK AO2
KFXY 121255Z AUTO 32007KT 10SM CLR M11/M14 A3021 RMK AO2
KFXY 121235Z AUTO 34007KT 10SM CLR M11/M14 A3021 RMK AO2
KFXY 121215Z AUTO 34007KT 10SM CLR M11/M14 A3021 RMK AO2
KFXY 121155Z AUTO 33008KT 10SM CLR M11/M14 A3022 RMK AO2
KFXY 121135Z AUTO 34012G16KT 10SM CLR M11/M14 A3021 RMK AO2
KFXY 121115Z AUTO 33012G15KT 10SM CLR M11/M14 A3022 RMK AO2
KFXY 121055Z AUTO 32011G16KT 10SM CLR M11/M14 A3022 RMK AO2
KFXY 121035Z AUTO 33013G16KT 10SM CLR M11/M14 A3022 RMK AO2
KFXY 121015Z AUTO 32012G16KT 10SM CLR M11/M13 A3022 RMK AO2
KFXY 120955Z AUTO 33013KT 10SM CLR M10/M13 A3022 RMK AO2
KFXY 120935Z AUTO 32012G15KT 10SM CLR M10/M13 A3022 RMK AO2
KFXY 120915Z AUTO 33012G19KT 10SM CLR M10/M13 A3022 RMK AO2
KFXY 120855Z AUTO 32013G18KT 10SM CLR M10/M13 A3023 RMK AO2
KFXY 120835Z AUTO 32010KT 10SM CLR M10/M13 A3023 RMK AO2
KFXY 120815Z AUTO 32012KT 10SM CLR M10/M12 A3023 RMK AO2
KFXY 120755Z AUTO 32010G19KT 10SM CLR M10/M12 A3023 RMK AO2
KFXY 120735Z AUTO 32014G19KT 10SM CLR M10/M12 A3023 RMK AO2
KFXY 120715Z AUTO 32013KT 10SM CLR M10/M12 A3023 RMK AO2
KFXY 120655Z AUTO 31014G21KT 10SM CLR M09/M11 A3023 RMK AO2
KFXY 120635Z AUTO 31012G19KT 10SM CLR M09/M11 A3022 RMK AO2
KFXY 120615Z AUTO 32011G20KT 10SM CLR M08/M11 A3023 RMK AO2
KFXY 120555Z AUTO 31012G16KT 10SM CLR M08/M10 A3022 RMK AO2
KFXY 120535Z AUTO 32010KT 10SM CLR M08/M10 A3022 RMK AO2
KFXY 120515Z AUTO 33010G19KT 10SM CLR M07/M10 A3021 RMK AO2
KFXY 120455Z AUTO 33015G21KT 10SM CLR M07/M09 A3021 RMK AO2
KFXY 120435Z AUTO 33016G21KT 10SM SCT014 M06/M08 A3020 RMK AO2
KFXY 120415Z AUTO 33014G17KT 10SM BKN014 M06/M08 A3019 RMK AO2
KFXY 120355Z AUTO 33017G22KT 10SM BKN016 M05/M07 A3019 RMK AO2
KFXY 120335Z AUTO 33018G25KT 10SM BKN018 OVC026 M05/M07 A3018 RMK AO2
KFXY 120315Z AUTO 34016G29KT 10SM OVC026 M03/M07 A3017 RMK AO2
KFXY 120255Z AUTO 34020G27KT 10SM OVC024 M03/M07 A3016 RMK AO2
KFXY 120235Z AUTO 34017G26KT 10SM OVC024 M02/M07 A3014 RMK AO2
KFXY 120215Z AUTO 33014G25KT 10SM OVC024 M02/M06 A3013 RMK AO2
KFXY 120155Z AUTO 33019G25KT 10SM OVC022 M02/M06 A3013 RMK AO2
KFXY 120135Z AUTO 33020G28KT 10SM OVC022 M01/M05 A3011 RMK AO2
KFXY 120115Z AUTO 33020G29KT 10SM SCT017 BKN024 OVC028 M01/M05 A3010 RMK AO2
KFXY 120055Z AUTO 33021G24KT 10SM BKN015 OVC028 M01/M03 A3007 RMK AO2
KFXY 120035Z AUTO 32017G25KT 10SM BKN015 OVC026 M01/M03 A3006 RMK AO2
KFXY 120015Z AUTO 32016G28KT 10SM BKN015 OVC022 00/M03 A3004 RMK AO2
KFXY 112355Z AUTO 33013G26KT 10SM SCT015 OVC022 00/M02 A3003 RMK AO2
KFXY 112335Z AUTO 34019G24KT 10SM BKN022 OVC026 00/M02 A3002 RMK AO2
KFXY 112315Z AUTO 34022G28KT 10SM OVC018 01/M02 A3000 RMK AO2
KFXY 112255Z AUTO 33014G28KT 10SM OVC018 01/M01 A2999 RMK AO2
KFXY 112235Z AUTO 34015G24KT 10SM BKN018 OVC023 01/M01 A2998 RMK AO2
KFXY 112215Z AUTO 34022G30KT 10SM BKN018 OVC023 02/M01 A2996 RMK AO2
KFXY 112155Z AUTO 34018G27KT 10SM OVC016 02/00 A2994 RMK AO2
KFXY 112135Z AUTO 33019G26KT 10SM OVC014 02/00 A2993 RMK AO2
KFXY 112115Z AUTO 33018G24KT 10SM OVC012 02/00 A2991 RMK AO2
KFXY 112055Z AUTO 33016G24KT 10SM OVC016 02/00 A2989 RMK AO2
KFXY 112035Z AUTO 33019G29KT 10SM OVC016 02/00 A2988 RMK AO2
KFXY 112015Z AUTO 33015G23KT 10SM OVC012 02/01 A2986 RMK AO2
KFXY 111955Z AUTO 33015G22KT 10SM OVC010 02/01 A2985 RMK AO2
KFXY 111935Z AUTO 33015G27KT 3SM -DZ OVC008 02/01 A2984 RMK AO2
KFXY 111915Z AUTO 33016G30KT 4SM DZ BKN010 OVC015 02/01 A2983 RMK AO2
KFXY 111855Z AUTO 33019G28KT 7SM DZ BKN013 OVC020 02/01 A2982 RMK AO2
KFXY 111835Z AUTO 33014G24KT 10SM BKN013 BKN018 OVC030 03/01 A2981 RMK AO2
KFXY 111815Z AUTO 33015G21KT 10SM BKN013 OVC030 03/01 A2980 RMK AO2
KFXY 111755Z AUTO 33015G26KT 10SM OVC013 03/01 A2979 RMK AO2
KFXY 111735Z AUTO 33015G21KT 10SM OVC013 03/01 A2978 RMK AO2
KFXY 111715Z AUTO 32014G24KT 10SM OVC013 03/01 A2977 RMK AO2
KFXY 111655Z AUTO 32016G22KT 10SM SCT015 BKN032 OVC042 03/01 A2977 RMK AO2
KFXY 111635Z AUTO 32015G23KT 10SM BKN032 OVC040 03/00 A2976 RMK AO2
KFXY 111615Z AUTO 32013G17KT 10SM OVC030 02/00 A2975 RMK AO2
KFXY 111555Z AUTO 32011G14KT 10SM OVC030 02/M01 A2974 RMK AO2
KFXY 111535Z AUTO 31013KT 10SM OVC030 02/M01 A2974 RMK AO2
KFXY 111515Z AUTO 31012G15KT 10SM SCT032 BKN070 BKN095 02/M01 A2973 RMK AO2
KFXY 111455Z AUTO 32009KT 10SM BKN070 OVC085 01/M02 A2972 RMK AO2
KFXY 111435Z AUTO 32007KT 5SM -SN SCT020 BKN070 OVC080 01/M02 A2971 RMK AO2
KFXY 111415Z AUTO 00000KT 10SM SCT060 OVC065 00/M03 A2972 RMK AO2
KFXY 111355Z AUTO 26004KT 10SM OVC060 00/M03 A2971 RMK AO2
KFXY 111335Z AUTO 25003KT 10SM OVC060 00/M03 A2972 RMK AO2
KFXY 111315Z AUTO 00000KT 10SM BKN060 BKN120 M01/M03 A2973 RMK AO2
KFXY 111255Z AUTO 22003KT 10SM CLR M01/M04 A2973 RMK AO2
KFXY 111235Z AUTO 00000KT 10SM CLR M01/M04 A2974 RMK AO2
KFXY 111215Z AUTO 23003KT 10SM CLR M01/M04 A2975 RMK AO2
KFXY 111155Z AUTO 00000KT 10SM SCT120 00/M03 A2977 RMK AO2
KFXY 111135Z AUTO 22004KT 10SM BKN120 00/M03 A2977 RMK AO2
KFXY 111115Z AUTO 22003KT 10SM SCT120 00/M03 A2977 RMK AO2
KFXY 111055Z AUTO 22006KT 10SM CLR 00/M03 A2978 RMK AO2
KFXY 111035Z AUTO 21005KT 10SM SCT120 00/M03 A2980 RMK AO2
KFXY 111015Z AUTO 00000KT 10SM SCT120 00/M03 A2981 RMK AO2
KFXY 110955Z AUTO 20006KT 10SM SCT120 M01/M03 A2982 RMK AO2
KFXY 110935Z AUTO 20005KT 10SM CLR 00/M03 A2984 RMK AO2
KFXY 110915Z AUTO 20005KT 10SM CLR 00/M03 A2986 RMK AO2
KFXY 110855Z AUTO 22006KT 10SM SCT120 00/M02 A2989 RMK AO2
KFXY 110835Z AUTO 22004KT 10SM BKN120 00/M03 A2990 RMK AO2
KFXY 110815Z AUTO 21007KT 10SM BKN110 00/M03 A2989 RMK AO2
KFXY 110755Z AUTO 18012KT 10SM SCT065 OVC100 00/M03 A2987 RMK AO2
KFXY 110735Z AUTO 17009KT 10SM SCT065 OVC100 00/M03 A2990 RMK AO2
KFXY 110715Z AUTO 17003KT 10SM OVC110 00/M03 A2993 RMK AO2
KFXY 110655Z AUTO 18003KT 10SM BKN110 M01/M03 A2994 RMK AO2
KFXY 110635Z AUTO 16003KT 10SM BKN110 00/M03 A2995 RMK AO2
KFXY 110615Z AUTO 17004KT 10SM BKN110 00/M03 A2995 RMK AO2
KFXY 110555Z AUTO 17004KT 10SM SCT100 BKN120 00/M03 A2996 RMK AO2
KFXY 110535Z AUTO 19003KT 10SM SCT080 BKN100 00/M03 A2999 RMK AO2
KFXY 110515Z AUTO 19003KT 10SM SCT100 BKN120 00/M03 A2999 RMK AO2
KFXY 110455Z AUTO 19003KT 10SM BKN120 00/M03 A2999 RMK AO2
KFXY 110435Z AUTO 20005KT 10SM OVC120 00/M03 A2999 RMK AO2
KFXY 110415Z AUTO 19004KT 10SM SCT085 SCT120 M01/M03 A2998 RMK AO2
KFXY 110355Z AUTO 15005KT 10SM SCT085 M01/M03 A2998 RMK AO2
KFXY 110335Z AUTO 00000KT 10SM SCT085 00/M03 A3001 RMK AO2
KFXY 110315Z AUTO 00000KT 10SM SCT085 00/M03 A3001 RMK AO2
KFXY 110255Z AUTO 21003KT 10SM OVC085 00/M03 A3003 RMK AO2
KFXY 110235Z AUTO 00000KT 10SM OVC095 00/M03 A3004 RMK AO2
KFXY 110215Z AUTO 00000KT 10SM OVC095 00/M03 A3005 RMK AO2